METAR Data
IDs: Format: Raw Decoded Include TAF

Data at: 1347 UTC 21 Apr 2021

METAR for:KSDA (Shenandoah Muni, IA, US)
Text:KSDA 211335Z AUTO 31010G16KT 10SM BKN021 BKN028 OVC032 02/M01 A3026 RMK AO2
Temperature: 2.0°C ( 36°F)
Dewpoint: -1.0°C ( 30°F) [RH = 80%]
Pressure (altimeter):30.26 inches Hg (1024.8 mb)
Winds:from the NW (310 degrees) at 12 MPH (10 knots; 5.1 m/s) gusting to 18 MPH (16 knots; 8.2 m/s)
Visibility:10 or more sm (16+ km)
Ceiling:2100 feet AGL
Clouds: broken clouds at 2100 feet AGL, broken clouds at 2800 feet AGL, overcast cloud deck at 3200 feet AGL
QC Flag:automated observation with no human augmentation